createdAt,value
2018-03-22T00:00:02.825Z,51
2018-03-22T00:00:52.882Z,50.9
2018-03-22T00:01:42.632Z,51
2018-03-22T00:02:33.581Z,51
2018-03-22T00:03:23.494Z,51
2018-03-22T00:04:12.267Z,51
2018-03-22T00:05:02.893Z,50.9
2018-03-22T00:05:53.044Z,50.9
2018-03-22T00:06:43.392Z,50.9
2018-03-22T00:07:32.554Z,50.9
2018-03-22T00:08:23.298Z,50.9
2018-03-22T00:09:13.488Z,50.9
2018-03-22T00:10:02.138Z,50.9
2018-03-22T00:10:53.146Z,50.9
2018-03-22T00:11:43.715Z,50.9
2018-03-22T00:12:33.315Z,50.9
2018-03-22T00:13:23.517Z,50.9
2018-03-22T00:14:12.814Z,50.9
2018-03-22T00:15:03.085Z,50.9
2018-03-22T00:15:52.628Z,50.9
2018-03-22T00:16:43.589Z,50.9
2018-03-22T00:17:33.351Z,50.9
2018-03-22T00:18:24.216Z,50.9
2018-03-22T00:19:13.921Z,50.9
2018-03-22T00:20:04.439Z,50.9
2018-03-22T00:20:54.304Z,50.9
2018-03-22T00:21:44.323Z,50.9
2018-03-22T00:22:34.470Z,50.9
2018-03-22T00:23:24.543Z,50.9
2018-03-22T00:24:14.813Z,50.9
2018-03-22T00:25:04.855Z,50.9
2018-03-22T00:25:54.402Z,50.9
2018-03-22T00:26:44.795Z,50.8
2018-03-22T00:27:35.000Z,50.8
2018-03-22T00:28:25.379Z,50.8
2018-03-22T00:29:15.160Z,50.8
2018-03-22T00:30:04.435Z,50.8
2018-03-22T00:30:54.087Z,50.8
2018-03-22T00:31:44.850Z,50.8
2018-03-22T00:32:34.949Z,50.8
2018-03-22T00:33:25.165Z,50.8
2018-03-22T00:34:15.095Z,50.8
2018-03-22T00:35:04.383Z,50.8
2018-03-22T00:35:55.035Z,50.8
2018-03-22T00:36:44.969Z,50.8
2018-03-22T00:37:34.941Z,50.8
2018-03-22T00:38:25.525Z,50.8
2018-03-22T00:39:15.871Z,50.8
2018-03-22T00:40:05.639Z,50.8
2018-03-22T00:40:55.970Z,50.8
2018-03-22T00:41:45.629Z,50.8
2018-03-22T00:42:36.427Z,50.8
2018-03-22T00:43:25.558Z,50.8
2018-03-22T00:44:15.285Z,50.8
2018-03-22T00:45:06.171Z,50.8
2018-03-22T00:45:55.631Z,50.8
2018-03-22T00:46:45.975Z,50.8
2018-03-22T00:47:35.738Z,50.8
2018-03-22T00:48:25.229Z,50.7
2018-03-22T00:49:16.326Z,50.7
2018-03-22T00:50:05.893Z,50.7
2018-03-22T00:50:56.074Z,50.7
2018-03-22T00:51:46.202Z,50.7
2018-03-22T00:52:36.521Z,50.7
2018-03-22T00:53:26.654Z,50.7
2018-03-22T00:54:16.189Z,50.7
2018-03-22T00:55:05.769Z,50.7
2018-03-22T00:55:56.494Z,50.7
2018-03-22T00:56:46.861Z,50.7
2018-03-22T00:57:37.023Z,50.7
2018-03-22T00:58:26.308Z,50.7
2018-03-22T00:59:16.363Z,50.7
2018-03-22T01:00:07.253Z,50.6
2018-03-22T01:00:57.670Z,50.6
2018-03-22T01:01:46.899Z,50.6
2018-03-22T01:02:37.186Z,50.6
2018-03-22T01:03:27.241Z,50.6
2018-03-22T01:04:17.311Z,50.6
2018-03-22T01:05:07.165Z,50.6
2018-03-22T01:05:57.201Z,50.6
2018-03-22T01:06:47.461Z,50.6
2018-03-22T01:07:37.496Z,50.6
2018-03-22T01:08:26.992Z,50.6
2018-03-22T01:09:18.236Z,50.6
2018-03-22T01:10:06.983Z,50.6
2018-03-22T01:10:58.050Z,50.6
2018-03-22T01:11:47.924Z,50.6
2018-03-22T01:12:37.984Z,50.6
2018-03-22T01:13:28.043Z,50.6
2018-03-22T01:14:17.700Z,50.6
2018-03-22T01:15:08.035Z,50.6
2018-03-22T01:15:58.401Z,50.6
2018-03-22T01:16:47.967Z,50.6
2018-03-22T01:17:38.852Z,50.6
2018-03-22T01:18:27.523Z,50.6
2018-03-22T01:19:18.458Z,50.6
2018-03-22T01:20:07.840Z,50.6
2018-03-22T01:20:57.785Z,50.5
2018-03-22T01:21:48.313Z,50.5
2018-03-22T01:22:38.634Z,50.5
2018-03-22T01:23:27.957Z,50.5
2018-03-22T01:24:18.407Z,50.5
2018-03-22T01:25:08.150Z,50.5
2018-03-22T01:25:58.608Z,50.5
2018-03-22T01:26:49.457Z,50.5
2018-03-22T01:27:38.719Z,50.5
2018-03-22T01:28:28.758Z,50.5
2018-03-22T01:29:17.760Z,50.5
2018-03-22T01:30:08.704Z,50.5
2018-03-22T01:30:58.672Z,50.4
2018-03-22T01:31:48.629Z,50.5
2018-03-22T01:32:39.296Z,50.4
2018-03-22T01:33:29.073Z,50.4
2018-03-22T01:34:19.286Z,50.4
2018-03-22T01:35:09.956Z,50.4
2018-03-22T01:35:59.242Z,50.4
2018-03-22T01:36:50.162Z,50.4
2018-03-22T01:37:40.333Z,50.4
2018-03-22T01:38:28.606Z,50.4
2018-03-22T01:39:19.728Z,50.4
2018-03-22T01:40:09.808Z,50.4
2018-03-22T01:40:59.944Z,50.4
2018-03-22T01:41:49.333Z,50.4
2018-03-22T01:42:39.721Z,50.4
2018-03-22T01:43:29.933Z,50.4
2018-03-22T01:44:19.698Z,50.4
2018-03-22T01:45:09.522Z,50.4
2018-03-22T01:46:00.221Z,50.4
2018-03-22T01:46:49.968Z,50.4
2018-03-22T01:47:40.340Z,50.4
2018-03-22T01:48:30.978Z,50.4
2018-03-22T01:49:20.428Z,50.4
2018-03-22T01:50:10.783Z,50.4
2018-03-22T01:50:59.858Z,50.4
2018-03-22T01:51:50.606Z,50.4
2018-03-22T01:52:40.265Z,50.3
2018-03-22T01:53:30.738Z,50.3
2018-03-22T01:54:20.607Z,50.3
2018-03-22T01:55:10.565Z,50.3
2018-03-22T01:56:00.721Z,50.3
2018-03-22T01:56:50.372Z,50.3
2018-03-22T01:57:41.031Z,50.3
2018-03-22T01:58:31.959Z,50.3
2018-03-22T01:59:20.762Z,50.3
2018-03-22T02:00:10.730Z,50.3
2018-03-22T02:01:01.051Z,50.3
2018-03-22T02:01:51.804Z,50.3
2018-03-22T02:02:41.934Z,50.3
2018-03-22T02:03:31.819Z,50.3
2018-03-22T02:04:20.879Z,50.3
2018-03-22T02:05:11.048Z,50.4
2018-03-22T02:06:01.220Z,50.6
2018-03-22T02:06:51.944Z,50.7
2018-03-22T02:07:41.439Z,50.8
2018-03-22T02:08:31.264Z,50.9
2018-03-22T02:09:21.832Z,51
2018-03-22T02:10:11.432Z,51.2
2018-03-22T02:11:01.850Z,51.4
2018-03-22T02:11:52.584Z,51.5
2018-03-22T02:12:41.554Z,51.7
2018-03-22T02:13:31.455Z,51.9
2018-03-22T02:14:21.877Z,52
2018-03-22T02:15:12.524Z,52.3
2018-03-22T02:16:51.769Z,52.4
2018-03-22T02:17:41.946Z,52.6
2018-03-22T02:18:32.776Z,52.8
2018-03-22T02:19:22.544Z,53
2018-03-22T02:20:12.680Z,53.2
2018-03-22T02:21:02.048Z,53.3
2018-03-22T02:21:52.296Z,53.5
2018-03-22T02:22:42.836Z,53.6
2018-03-22T02:23:32.726Z,53.8
2018-03-22T02:24:23.472Z,53.9
2018-03-22T02:25:12.456Z,54.2
2018-03-22T02:26:03.024Z,54.3
2018-03-22T02:26:53.164Z,54.4
2018-03-22T02:27:43.144Z,54.7
2018-03-22T02:28:33.189Z,54.8
2018-03-22T02:29:22.988Z,55
2018-03-22T02:30:13.874Z,55.2
2018-03-22T02:31:03.152Z,55.3
2018-03-22T02:31:52.923Z,55.5
2018-03-22T02:32:42.984Z,55.7
2018-03-22T02:33:33.558Z,55.8
2018-03-22T02:34:23.301Z,56.1
2018-03-22T02:35:13.357Z,56.3
2018-03-22T02:36:02.637Z,56.4
2018-03-22T02:37:44.213Z,56.7
2018-03-22T02:38:33.185Z,56.8
2018-03-22T02:39:23.470Z,57
2018-03-22T02:40:14.210Z,57.2
2018-03-22T02:41:04.108Z,57.4
2018-03-22T02:41:54.213Z,57.6
2018-03-22T02:42:43.115Z,57.7
2018-03-22T02:43:33.459Z,57.9
2018-03-22T02:44:24.603Z,58.1
2018-03-22T02:45:13.969Z,58.4
2018-03-22T02:46:04.395Z,58.4
2018-03-22T02:47:44.573Z,58.8
2018-03-22T02:48:34.566Z,58.9
2018-03-22T02:49:24.666Z,59
2018-03-22T02:50:15.280Z,59.3
2018-03-22T02:51:04.659Z,59.6
2018-03-22T02:51:54.311Z,59.6
2018-03-22T02:52:45.268Z,59.9
2018-03-22T02:53:34.651Z,60
2018-03-22T02:54:24.598Z,60.2
2018-03-22T02:55:15.358Z,60.3
2018-03-22T02:56:04.540Z,60.5
2018-03-22T02:56:54.980Z,60.6
2018-03-22T02:57:44.325Z,60.8
2018-03-22T02:58:34.984Z,61
2018-03-22T02:59:25.369Z,61.1
2018-03-22T03:00:15.816Z,61.3
2018-03-22T03:01:04.974Z,61.5
2018-03-22T03:01:55.601Z,61.7
2018-03-22T03:02:45.289Z,61.9
2018-03-22T03:03:35.348Z,62
2018-03-22T03:04:25.210Z,62.1
2018-03-22T03:05:15.242Z,62.1
2018-03-22T03:06:05.497Z,62.1
2018-03-22T03:06:55.485Z,62.1
2018-03-22T03:07:46.200Z,62.1
2018-03-22T03:08:36.558Z,62.2
2018-03-22T03:09:25.237Z,62.2
2018-03-22T03:10:14.809Z,62.2
2018-03-22T03:11:05.968Z,62.2
2018-03-22T03:11:55.408Z,62.2
2018-03-22T03:12:46.137Z,62.2
2018-03-22T03:13:36.211Z,62.2
2018-03-22T03:14:26.148Z,62.2
2018-03-22T03:15:16.258Z,62.2
2018-03-22T03:16:06.586Z,62.2
2018-03-22T03:16:56.268Z,62.2
2018-03-22T03:17:45.793Z,62.2
2018-03-22T03:18:36.173Z,62.3
2018-03-22T03:19:27.022Z,62.3
2018-03-22T03:20:16.304Z,62.3
2018-03-22T03:21:06.639Z,62.3
2018-03-22T03:21:57.462Z,62.3
2018-03-22T03:22:46.678Z,62.3
2018-03-22T03:23:37.594Z,62.4
2018-03-22T03:24:26.584Z,62.5
2018-03-22T03:25:16.640Z,62.5
2018-03-22T03:26:07.183Z,62.6
2018-03-22T03:26:56.455Z,62.6
2018-03-22T03:27:46.902Z,62.6
2018-03-22T03:28:37.475Z,62.6
2018-03-22T03:29:27.730Z,62.6
2018-03-22T03:30:17.054Z,62.6
2018-03-22T03:31:07.159Z,62.6
2018-03-22T03:31:57.652Z,62.6
2018-03-22T03:32:47.179Z,62.6
2018-03-22T03:33:36.952Z,62.6
2018-03-22T03:34:28.627Z,62.5
2018-03-22T03:35:17.348Z,62.6
2018-03-22T03:36:07.997Z,62.6
2018-03-22T03:36:57.675Z,62.6
2018-03-22T03:37:47.127Z,62.6
2018-03-22T03:38:36.990Z,62.6
2018-03-22T03:39:27.498Z,62.6
2018-03-22T03:40:17.897Z,62.6
2018-03-22T03:41:08.039Z,62.5
2018-03-22T03:41:57.517Z,62.5
2018-03-22T03:42:47.762Z,62.5
2018-03-22T03:43:39.032Z,62.5
2018-03-22T03:44:28.273Z,62.5
2018-03-22T03:45:18.545Z,62.5
2018-03-22T03:46:07.800Z,62.5
2018-03-22T03:46:58.964Z,62.5
2018-03-22T03:47:47.836Z,62.5
2018-03-22T03:48:39.035Z,62.5
2018-03-22T03:49:28.350Z,62.5
2018-03-22T03:50:18.559Z,62.5
2018-03-22T03:51:08.955Z,62.5
2018-03-22T03:51:58.504Z,62.5
2018-03-22T03:52:49.682Z,62.4
2018-03-22T03:53:38.712Z,62.4
2018-03-22T03:54:28.868Z,62.4
2018-03-22T03:55:18.426Z,62.4
2018-03-22T03:56:09.316Z,62.4
2018-03-22T03:56:59.431Z,62.4
2018-03-22T03:57:49.805Z,62.4
2018-03-22T03:58:39.427Z,62.4
2018-03-22T03:59:29.646Z,62.4
2018-03-22T04:00:18.965Z,62.4
2018-03-22T04:01:09.946Z,62.4
2018-03-22T04:01:59.221Z,62.4
2018-03-22T04:02:49.454Z,62.4
2018-03-22T04:03:39.594Z,62.4
2018-03-22T04:04:29.593Z,62.4
2018-03-22T04:05:20.212Z,62.4
2018-03-22T04:06:09.747Z,62.4
2018-03-22T04:06:59.171Z,62.4
2018-03-22T04:07:49.810Z,62.4
2018-03-22T04:08:39.655Z,62.4
2018-03-22T04:09:29.925Z,62.4
2018-03-22T04:10:20.069Z,62.3
2018-03-22T04:11:10.687Z,62.3
2018-03-22T04:12:01.292Z,62.3
2018-03-22T04:12:51.017Z,62.3
2018-03-22T04:13:40.805Z,62.3
2018-03-22T04:14:30.573Z,62.3
2018-03-22T04:15:20.324Z,62.3
2018-03-22T04:16:10.791Z,62.3
2018-03-22T04:17:01.095Z,62.3
2018-03-22T04:17:50.299Z,62.3
2018-03-22T04:18:40.266Z,62.3
2018-03-22T04:19:30.515Z,62.3
2018-03-22T04:20:20.857Z,62.3
2018-03-22T04:21:10.667Z,62.3
2018-03-22T04:22:00.554Z,62.3
2018-03-22T04:22:50.947Z,62.3
2018-03-22T04:23:40.970Z,62.3
2018-03-22T04:24:30.962Z,62.3
2018-03-22T04:25:20.766Z,62.3
2018-03-22T04:26:10.581Z,62.2
2018-03-22T04:27:01.426Z,62.3
2018-03-22T04:27:52.136Z,62.2
2018-03-22T04:28:41.659Z,62.2
2018-03-22T04:29:31.637Z,62.2
2018-03-22T04:30:22.236Z,62.2
2018-03-22T04:31:12.321Z,62.2
2018-03-22T04:32:01.789Z,62.2
2018-03-22T04:32:51.943Z,62.2
2018-03-22T04:33:41.883Z,62.2
2018-03-22T04:34:31.926Z,62.2
2018-03-22T04:35:22.028Z,62.2
2018-03-22T04:36:11.900Z,62.1
2018-03-22T04:37:01.643Z,62.1
2018-03-22T04:37:51.993Z,62.1
2018-03-22T04:38:42.128Z,62.1
2018-03-22T04:39:32.601Z,62.1
2018-03-22T04:40:22.054Z,62.1
2018-03-22T04:41:11.831Z,62.1
2018-03-22T04:42:01.976Z,62.1
2018-03-22T04:42:52.844Z,62.1
2018-03-22T04:43:41.917Z,62.1
2018-03-22T04:44:32.277Z,62.1
2018-03-22T04:45:22.437Z,62.1
2018-03-22T04:46:11.980Z,62.1
2018-03-22T04:47:01.569Z,62.1
2018-03-22T04:47:52.891Z,62.1
2018-03-22T04:48:43.326Z,62.1
2018-03-22T04:49:33.000Z,62.1
2018-03-22T04:50:22.885Z,62.1
2018-03-22T04:51:12.325Z,62.1
2018-03-22T04:52:02.487Z,62
2018-03-22T04:52:52.759Z,62.1
2018-03-22T04:53:43.828Z,62
2018-03-22T04:54:33.949Z,62
2018-03-22T04:55:23.944Z,62
2018-03-22T04:56:14.028Z,62
2018-03-22T04:57:03.745Z,62
2018-03-22T04:57:54.428Z,62
2018-03-22T04:58:44.179Z,62
2018-03-22T04:59:34.278Z,62
2018-03-22T05:00:24.040Z,62
2018-03-22T05:01:14.096Z,61.9
2018-03-22T05:02:03.010Z,61.9
2018-03-22T05:02:54.477Z,61.9
2018-03-22T05:03:44.237Z,61.9
2018-03-22T05:04:34.610Z,61.9
2018-03-22T05:05:24.937Z,61.9
2018-03-22T05:06:14.746Z,61.9
2018-03-22T05:07:04.559Z,61.9
2018-03-22T05:07:55.124Z,61.9
2018-03-22T05:08:44.321Z,61.9
2018-03-22T05:09:35.208Z,61.9
2018-03-22T05:10:25.302Z,61.9
2018-03-22T05:11:15.053Z,61.9
2018-03-22T05:12:05.154Z,61.9
2018-03-22T05:12:55.163Z,61.9
2018-03-22T05:13:45.021Z,61.9
2018-03-22T05:14:35.591Z,61.9
2018-03-22T05:15:25.423Z,61.8
2018-03-22T05:16:15.143Z,61.9
2018-03-22T05:17:05.526Z,61.9
2018-03-22T05:17:55.508Z,61.8
2018-03-22T05:18:46.097Z,61.8
2018-03-22T05:19:35.359Z,61.8
2018-03-22T05:20:25.446Z,61.8
2018-03-22T05:21:16.030Z,61.8
2018-03-22T05:22:05.815Z,61.8
2018-03-22T05:22:55.595Z,61.8
2018-03-22T05:23:46.243Z,61.8
2018-03-22T05:24:36.319Z,61.8
2018-03-22T05:25:26.065Z,61.8
2018-03-22T05:26:16.359Z,61.8
2018-03-22T05:27:06.454Z,61.8
2018-03-22T05:27:56.210Z,61.8
2018-03-22T05:28:46.564Z,61.8
2018-03-22T05:29:36.602Z,61.8
2018-03-22T05:30:26.106Z,61.8
2018-03-22T05:31:16.801Z,61.8
2018-03-22T05:32:06.226Z,61.8
2018-03-22T05:32:56.263Z,61.8
2018-03-22T05:33:46.611Z,61.7
2018-03-22T05:34:36.741Z,61.7
2018-03-22T05:35:27.040Z,61.7
2018-03-22T05:36:17.049Z,61.7
2018-03-22T05:37:06.896Z,61.7
2018-03-22T05:37:56.891Z,61.7
2018-03-22T05:38:47.248Z,61.7
2018-03-22T05:39:37.286Z,61.6
2018-03-22T05:40:27.374Z,61.7
2018-03-22T05:41:17.120Z,61.6
2018-03-22T05:42:06.962Z,61.6
2018-03-22T05:42:56.765Z,61.6
2018-03-22T05:43:47.118Z,61.6
2018-03-22T05:44:37.135Z,61.6
2018-03-22T05:45:25.883Z,61.6
2018-03-22T05:46:17.033Z,61.6
2018-03-22T05:47:06.400Z,61.6
2018-03-22T05:47:57.237Z,61.6
2018-03-22T05:48:47.382Z,61.6
2018-03-22T05:49:37.192Z,61.6
2018-03-22T05:50:27.407Z,61.6
2018-03-22T05:51:16.799Z,61.6
2018-03-22T05:52:07.492Z,61.6
2018-03-22T05:52:57.110Z,61.6
2018-03-22T05:53:47.450Z,61.6
2018-03-22T05:54:36.725Z,61.6
2018-03-22T05:55:27.278Z,61.5
2018-03-22T05:56:17.520Z,61.6
2018-03-22T05:57:07.773Z,61.5
2018-03-22T05:57:58.062Z,61.5
2018-03-22T05:58:48.384Z,61.5
2018-03-22T05:59:37.985Z,61.5
2018-03-22T06:00:28.112Z,61.5
2018-03-22T06:01:18.583Z,61.5
2018-03-22T06:02:07.653Z,61.4
2018-03-22T06:02:57.915Z,61.5
2018-03-22T06:03:47.961Z,61.4
2018-03-22T06:04:37.612Z,61.4
2018-03-22T06:05:27.999Z,61.4
2018-03-22T06:06:17.933Z,61.4
2018-03-22T06:07:07.508Z,61.4
2018-03-22T06:07:58.584Z,61.4
2018-03-22T06:08:49.426Z,61.4
2018-03-22T06:09:38.565Z,61.4
2018-03-22T06:10:28.339Z,61.4
2018-03-22T06:11:19.322Z,61.4
2018-03-22T06:12:08.245Z,61.4
2018-03-22T06:12:58.609Z,61.4
2018-03-22T06:13:48.576Z,61.4
2018-03-22T06:14:38.779Z,61.4
2018-03-22T06:15:28.202Z,61.4
2018-03-22T06:16:19.309Z,61.4
2018-03-22T06:17:08.796Z,61.4
2018-03-22T06:17:59.230Z,61.3
2018-03-22T06:18:48.716Z,61.3
2018-03-22T06:19:38.764Z,61.3
2018-03-22T06:20:28.821Z,61.3
2018-03-22T06:21:19.559Z,61.3
2018-03-22T06:22:09.124Z,61.3
2018-03-22T06:22:59.364Z,61.3
2018-03-22T06:23:50.124Z,61.3
2018-03-22T06:24:39.481Z,61.3
2018-03-22T06:25:28.790Z,61.3
2018-03-22T06:26:19.739Z,61.3
2018-03-22T06:27:08.459Z,61.3
2018-03-22T06:28:00.039Z,61.3
2018-03-22T06:28:50.116Z,61.3
2018-03-22T06:29:39.485Z,61.3
2018-03-22T06:30:28.714Z,61.3
2018-03-22T06:31:19.762Z,61.3
2018-03-22T06:32:10.196Z,61.3
2018-03-22T06:32:59.885Z,61.3
2018-03-22T06:33:49.356Z,61.2
2018-03-22T06:34:40.193Z,61.2
2018-03-22T06:35:30.183Z,61.2
2018-03-22T06:36:19.932Z,61.2
2018-03-22T06:37:10.901Z,61.2
2018-03-22T06:37:59.995Z,61.2
2018-03-22T06:38:50.488Z,61.2
2018-03-22T06:39:40.140Z,61.2
2018-03-22T06:40:29.820Z,61.1
2018-03-22T06:41:20.213Z,61.2
2018-03-22T06:42:10.515Z,61.1
2018-03-22T06:43:00.737Z,61.1
2018-03-22T06:43:50.610Z,61.1
2018-03-22T06:44:40.716Z,61.1
2018-03-22T06:45:30.647Z,61.1
2018-03-22T06:46:20.743Z,61.1
2018-03-22T06:47:10.853Z,61.1
2018-03-22T06:48:00.743Z,61.1
2018-03-22T06:48:50.999Z,61.1
2018-03-22T06:49:41.247Z,61.1
2018-03-22T06:50:31.281Z,61.1
2018-03-22T06:51:20.680Z,61.1
2018-03-22T06:52:11.500Z,61.1
2018-03-22T06:53:02.228Z,61.1
2018-03-22T06:53:51.030Z,61.1
2018-03-22T06:54:41.560Z,61.1
2018-03-22T06:55:30.870Z,61
2018-03-22T06:56:20.760Z,61
2018-03-22T06:57:11.459Z,61
2018-03-22T06:58:01.914Z,61
2018-03-22T06:58:51.275Z,61
2018-03-22T06:59:41.532Z,61
2018-03-22T07:00:32.377Z,61
2018-03-22T07:01:21.546Z,61
2018-03-22T07:02:11.877Z,60.9
2018-03-22T07:03:02.646Z,60.9
2018-03-22T07:03:52.946Z,60.9
2018-03-22T07:04:42.497Z,60.9
2018-03-22T07:05:31.737Z,60.9
2018-03-22T07:06:22.194Z,60.9
2018-03-22T07:07:11.347Z,60.9
2018-03-22T07:08:02.219Z,60.9
2018-03-22T07:08:52.185Z,60.9
2018-03-22T07:09:42.609Z,60.9
2018-03-22T07:10:32.314Z,60.9
2018-03-22T07:11:22.810Z,60.9
2018-03-22T07:12:12.905Z,60.9
2018-03-22T07:13:02.871Z,60.9
2018-03-22T07:13:53.032Z,60.9
2018-03-22T07:14:43.355Z,60.9
2018-03-22T07:15:32.318Z,60.9
2018-03-22T07:16:23.169Z,60.8
2018-03-22T07:17:13.318Z,60.8
2018-03-22T07:18:03.475Z,60.8
2018-03-22T07:18:53.173Z,60.8
2018-03-22T07:19:43.718Z,60.8
2018-03-22T07:20:33.093Z,60.8
2018-03-22T07:21:23.503Z,60.8
2018-03-22T07:22:13.588Z,60.8
2018-03-22T07:23:03.518Z,60.8
2018-03-22T07:23:53.507Z,60.8
2018-03-22T07:24:43.973Z,60.8
2018-03-22T07:25:33.023Z,60.8
2018-03-22T07:26:23.475Z,60.8
2018-03-22T07:27:14.019Z,60.8
2018-03-22T07:28:03.784Z,60.8
2018-03-22T07:28:53.447Z,60.8
2018-03-22T07:29:44.395Z,60.8
2018-03-22T07:30:33.892Z,60.8
2018-03-22T07:31:24.482Z,60.8
2018-03-22T07:32:14.636Z,60.7
2018-03-22T07:33:04.334Z,60.7
2018-03-22T07:33:54.727Z,60.7
2018-03-22T07:34:43.855Z,60.7
2018-03-22T07:35:35.345Z,60.7
2018-03-22T07:36:25.107Z,60.7
2018-03-22T07:37:14.875Z,60.7
2018-03-22T07:38:05.355Z,60.7
2018-03-22T07:38:55.308Z,60.7
2018-03-22T07:39:45.081Z,60.7
2018-03-22T07:40:34.877Z,60.6
2018-03-22T07:41:24.308Z,60.6
2018-03-22T07:42:14.980Z,60.6
2018-03-22T07:43:04.536Z,60.6
2018-03-22T07:43:54.718Z,60.6
2018-03-22T07:44:45.033Z,60.6
2018-03-22T07:45:35.017Z,60.6
2018-03-22T07:46:25.649Z,60.6
2018-03-22T07:47:15.690Z,60.6
2018-03-22T07:48:05.376Z,60.6
2018-03-22T07:48:55.830Z,60.6
2018-03-22T07:49:45.474Z,60.6
2018-03-22T07:50:35.567Z,60.6
2018-03-22T07:51:26.202Z,60.6
2018-03-22T07:52:15.743Z,60.6
2018-03-22T07:53:06.309Z,60.6
2018-03-22T07:53:55.772Z,60.6
2018-03-22T07:54:46.397Z,60.6
2018-03-22T07:55:35.861Z,60.5
2018-03-22T07:56:26.045Z,60.5
2018-03-22T07:57:16.896Z,60.5
2018-03-22T07:58:05.857Z,60.5
2018-03-22T07:58:56.813Z,60.5
2018-03-22T07:59:46.497Z,60.5
2018-03-22T08:00:36.549Z,60.5
2018-03-22T08:01:24.835Z,60.5
2018-03-22T08:02:15.861Z,60.4
2018-03-22T08:03:05.821Z,60.4
2018-03-22T08:03:56.457Z,60.4
2018-03-22T08:04:46.549Z,60.4
2018-03-22T08:05:36.976Z,60.4
2018-03-22T08:06:26.154Z,60.4
2018-03-22T08:07:16.688Z,60.4
2018-03-22T08:08:06.957Z,60.4
2018-03-22T08:08:56.697Z,60.4
2018-03-22T08:09:47.463Z,60.4
2018-03-22T08:10:36.513Z,60.4
2018-03-22T08:11:26.287Z,60.4
2018-03-22T08:12:17.338Z,60.4
2018-03-22T08:13:06.601Z,60.4
2018-03-22T08:13:56.676Z,60.4
2018-03-22T08:14:46.898Z,60.4
2018-03-22T08:15:36.780Z,60.4
2018-03-22T08:16:27.596Z,60.4
2018-03-22T08:17:17.109Z,60.4
2018-03-22T08:18:08.019Z,60.3
2018-03-22T08:18:57.386Z,60.3
2018-03-22T08:19:46.436Z,60.3
2018-03-22T08:20:38.107Z,60.3
2018-03-22T08:21:27.135Z,60.3
2018-03-22T08:22:17.528Z,60.3
2018-03-22T08:23:07.019Z,60.3
2018-03-22T08:23:57.438Z,60.3
2018-03-22T08:24:47.596Z,60.3
2018-03-22T08:25:37.115Z,60.3
2018-03-22T08:26:28.168Z,60.3
2018-03-22T08:27:17.893Z,60.3
2018-03-22T08:28:08.013Z,60.3
2018-03-22T08:28:58.371Z,60.3
2018-03-22T08:29:47.975Z,60.3
2018-03-22T08:30:36.927Z,60.3
2018-03-22T08:31:27.756Z,60.3
2018-03-22T08:32:17.726Z,60.3
2018-03-22T08:33:08.295Z,60.2
2018-03-22T08:33:58.608Z,60.2
2018-03-22T08:34:49.177Z,60.2
2018-03-22T08:35:38.097Z,60.2
2018-03-22T08:36:28.758Z,60.2
2018-03-22T08:37:19.045Z,60.2
2018-03-22T08:38:08.306Z,60.2
2018-03-22T08:38:58.758Z,60.2
2018-03-22T08:39:48.527Z,60.1
2018-03-22T08:40:38.772Z,60.1
2018-03-22T08:41:29.433Z,60.1
2018-03-22T08:42:18.930Z,60.1
2018-03-22T08:43:10.019Z,60.1
2018-03-22T08:43:59.200Z,60.1
2018-03-22T08:44:49.098Z,60.1
2018-03-22T08:45:38.930Z,60.1
2018-03-22T08:46:29.790Z,60.1
2018-03-22T08:47:19.209Z,60.1
2018-03-22T08:48:09.225Z,60.1
2018-03-22T08:48:59.740Z,60.1
2018-03-22T08:49:49.907Z,60.1
2018-03-22T08:50:40.094Z,60.1
2018-03-22T08:51:29.934Z,60.1
2018-03-22T08:52:19.819Z,60.1
2018-03-22T08:53:09.652Z,60.1
2018-03-22T08:53:59.965Z,60.1
2018-03-22T08:54:51.350Z,60
2018-03-22T08:55:40.624Z,60
2018-03-22T08:56:30.634Z,60
2018-03-22T08:57:20.226Z,60
2018-03-22T08:58:10.055Z,60
2018-03-22T08:59:00.071Z,60
2018-03-22T08:59:49.890Z,60
2018-03-22T09:00:40.376Z,60
2018-03-22T09:01:30.229Z,60
2018-03-22T09:02:20.291Z,59.9
2018-03-22T09:03:10.349Z,59.9
2018-03-22T09:04:00.388Z,59.9
2018-03-22T09:04:51.252Z,59.9
2018-03-22T09:05:40.590Z,59.9
2018-03-22T09:06:31.144Z,59.9
2018-03-22T09:07:20.616Z,59.9
2018-03-22T09:08:11.181Z,59.9
2018-03-22T09:09:01.533Z,59.9
2018-03-22T09:09:51.252Z,59.9
2018-03-22T09:10:41.350Z,59.9
2018-03-22T09:11:31.230Z,59.9
2018-03-22T09:12:20.493Z,59.9
2018-03-22T09:13:11.490Z,59.9
2018-03-22T09:14:01.663Z,59.9
2018-03-22T09:14:51.142Z,59.9
2018-03-22T09:15:40.988Z,59.9
2018-03-22T09:16:31.363Z,59.9
2018-03-22T09:17:21.866Z,59.8
2018-03-22T09:18:11.945Z,59.9
2018-03-22T09:19:01.722Z,59.8
2018-03-22T09:19:51.612Z,59.8
2018-03-22T09:20:41.242Z,59.8
2018-03-22T09:21:31.533Z,59.8
2018-03-22T09:22:21.588Z,59.8
2018-03-22T09:23:12.013Z,59.8
2018-03-22T09:24:01.658Z,59.8
2018-03-22T09:24:51.858Z,59.8
2018-03-22T09:25:41.592Z,59.8
2018-03-22T09:26:31.675Z,59.8
2018-03-22T09:27:22.310Z,59.8
2018-03-22T09:28:11.917Z,59.8
2018-03-22T09:29:02.634Z,59.8
2018-03-22T09:29:51.688Z,59.8
2018-03-22T09:30:43.338Z,59.8
2018-03-22T09:31:32.265Z,59.8
2018-03-22T09:32:22.342Z,59.8
2018-03-22T09:33:12.450Z,59.7
2018-03-22T09:34:02.932Z,59.8
2018-03-22T09:34:53.362Z,59.7
2018-03-22T09:35:42.571Z,59.7
2018-03-22T09:36:32.442Z,59.7
2018-03-22T09:37:22.511Z,59.7
2018-03-22T09:38:13.329Z,59.7
2018-03-22T09:39:03.395Z,59.7
2018-03-22T09:39:53.367Z,59.7
2018-03-22T09:40:42.332Z,59.7
2018-03-22T09:41:33.577Z,59.6
2018-03-22T09:42:23.234Z,59.6
2018-03-22T09:43:12.899Z,59.6
2018-03-22T09:44:03.678Z,59.6
2018-03-22T09:44:53.511Z,59.6
2018-03-22T09:45:42.876Z,59.6
2018-03-22T09:46:32.917Z,59.6
2018-03-22T09:47:23.562Z,59.6
2018-03-22T09:48:13.212Z,59.6
2018-03-22T09:49:03.871Z,59.6
2018-03-22T09:49:54.161Z,59.6
2018-03-22T09:50:44.096Z,59.5
2018-03-22T09:51:33.239Z,59.5
2018-03-22T09:52:23.719Z,59.5
2018-03-22T09:53:13.797Z,59.5
2018-03-22T09:54:03.363Z,59.5
2018-03-22T09:54:53.516Z,59.5
2018-03-22T09:55:44.348Z,59.5
2018-03-22T09:56:33.814Z,59.5
2018-03-22T09:57:25.167Z,59.4
2018-03-22T09:58:14.051Z,59.4
2018-03-22T09:59:05.275Z,59.4
2018-03-22T09:59:55.293Z,59.4
2018-03-22T10:00:45.052Z,59.4
2018-03-22T10:01:35.400Z,59.4
2018-03-22T10:02:25.452Z,59.4
2018-03-22T10:03:15.228Z,59.4
2018-03-22T10:04:05.326Z,59.4
2018-03-22T10:04:55.152Z,59.4
2018-03-22T10:05:44.896Z,59.4
2018-03-22T10:06:35.720Z,59.4
2018-03-22T10:07:25.844Z,59.4
2018-03-22T10:08:15.560Z,59.4
2018-03-22T10:09:05.176Z,59.4
2018-03-22T10:09:55.180Z,59.4
2018-03-22T10:10:44.970Z,59.4
2018-03-22T10:11:35.812Z,59.4
2018-03-22T10:12:26.157Z,59.4
2018-03-22T10:13:15.733Z,59.4
2018-03-22T10:14:05.192Z,59.3
2018-03-22T10:14:55.566Z,59.3
2018-03-22T10:15:45.887Z,59.3
2018-03-22T10:16:35.933Z,59.3
2018-03-22T10:17:25.351Z,59.3
2018-03-22T10:18:16.315Z,59.3
2018-03-22T10:19:06.047Z,59.3
2018-03-22T10:19:55.880Z,59.3
2018-03-22T10:20:46.722Z,59.3
2018-03-22T10:21:35.964Z,59.2
2018-03-22T10:22:26.326Z,59.2
2018-03-22T10:23:16.389Z,59.2
2018-03-22T10:24:05.860Z,59.2
2018-03-22T10:24:56.750Z,59.2
2018-03-22T10:25:46.027Z,59.2
2018-03-22T10:26:36.829Z,59.2
2018-03-22T10:27:26.654Z,59.2
2018-03-22T10:28:16.378Z,59.1
2018-03-22T10:29:06.721Z,59.1
2018-03-22T10:29:57.353Z,59.1
2018-03-22T10:30:46.942Z,59.1
2018-03-22T10:31:36.969Z,59.1
2018-03-22T10:32:27.492Z,59.1
2018-03-22T10:33:17.632Z,59.1
2018-03-22T10:34:06.807Z,59.1
2018-03-22T10:34:56.908Z,59.1
2018-03-22T10:35:47.196Z,59.1
2018-03-22T10:36:36.175Z,59.1
2018-03-22T10:37:26.535Z,59.1
2018-03-22T10:38:17.851Z,59.1
2018-03-22T10:39:06.863Z,59.1
2018-03-22T10:39:56.496Z,59.1
2018-03-22T10:40:47.296Z,59.1
2018-03-22T10:41:37.476Z,59.1
2018-03-22T10:42:27.725Z,59.1
2018-03-22T10:43:17.968Z,59.1
2018-03-22T10:44:06.721Z,59.1
2018-03-22T10:44:58.106Z,59
2018-03-22T10:45:46.885Z,59
2018-03-22T10:46:37.340Z,59
2018-03-22T10:47:27.288Z,59
2018-03-22T10:48:18.340Z,59
2018-03-22T10:49:07.842Z,59
2018-03-22T10:49:57.763Z,59
2018-03-22T10:50:47.347Z,59
2018-03-22T10:51:37.576Z,58.9
2018-03-22T10:52:28.518Z,59
2018-03-22T10:53:18.090Z,58.9
2018-03-22T10:54:08.040Z,58.9
2018-03-22T10:54:57.887Z,58.9
2018-03-22T10:55:48.656Z,58.9
2018-03-22T10:56:38.135Z,58.9
2018-03-22T10:57:27.695Z,58.9
2018-03-22T10:58:18.157Z,58.9
2018-03-22T10:59:08.775Z,58.9
2018-03-22T10:59:57.761Z,58.9
2018-03-22T11:00:48.290Z,58.9
2018-03-22T11:01:37.675Z,58.9
2018-03-22T11:02:28.305Z,58.9
2018-03-22T11:03:18.657Z,58.9
2018-03-22T11:04:09.150Z,58.9
2018-03-22T11:04:58.292Z,58.9
2018-03-22T11:05:48.670Z,58.9
2018-03-22T11:06:39.327Z,58.8
2018-03-22T11:07:28.790Z,58.9
2018-03-22T11:08:19.404Z,58.8
2018-03-22T11:09:09.267Z,58.8
2018-03-22T11:09:59.224Z,58.8
2018-03-22T11:10:49.559Z,58.8